sensor_id;sensor_type;location;lat;lon;timestamp;temperature;humidity
24326;DHT22;12448;45.532;5.290;2022-07-29T00:01:34;23.80;51.00
24326;DHT22;12448;45.532;5.290;2022-07-29T00:04:00;23.80;51.00
24326;DHT22;12448;45.532;5.290;2022-07-29T00:06:25;23.80;50.70
24326;DHT22;12448;45.532;5.290;2022-07-29T00:08:51;23.70;50.70
24326;DHT22;12448;45.532;5.290;2022-07-29T00:11:16;23.50;50.90
24326;DHT22;12448;45.532;5.290;2022-07-29T00:13:42;23.40;51.30
24326;DHT22;12448;45.532;5.290;2022-07-29T00:16:08;23.30;51.50
24326;DHT22;12448;45.532;5.290;2022-07-29T00:18:33;23.20;51.60
24326;DHT22;12448;45.532;5.290;2022-07-29T00:20:59;23.20;51.60
24326;DHT22;12448;45.532;5.290;2022-07-29T00:23:25;23.20;51.50
24326;DHT22;12448;45.532;5.290;2022-07-29T00:25:50;23.20;51.50
24326;DHT22;12448;45.532;5.290;2022-07-29T00:28:16;23.20;51.60
24326;DHT22;12448;45.532;5.290;2022-07-29T00:30:42;23.10;51.80
24326;DHT22;12448;45.532;5.290;2022-07-29T00:33:09;23.00;51.90
24326;DHT22;12448;45.532;5.290;2022-07-29T00:35:34;23.00;51.80
24326;DHT22;12448;45.532;5.290;2022-07-29T00:38:11;23.10;51.70
24326;DHT22;12448;45.532;5.290;2022-07-29T00:40:37;23.20;51.60
24326;DHT22;12448;45.532;5.290;2022-07-29T00:43:02;23.10;51.60
24326;DHT22;12448;45.532;5.290;2022-07-29T00:45:28;23.10;51.60
24326;DHT22;12448;45.532;5.290;2022-07-29T00:47:55;23.20;51.50
24326;DHT22;12448;45.532;5.290;2022-07-29T00:50:21;23.30;51.20
24326;DHT22;12448;45.532;5.290;2022-07-29T00:52:47;23.30;51.10
24326;DHT22;12448;45.532;5.290;2022-07-29T00:55:15;23.40;51.20
24326;DHT22;12448;45.532;5.290;2022-07-29T00:57:42;23.50;50.80
24326;DHT22;12448;45.532;5.290;2022-07-29T01:00:11;23.60;50.70
24326;DHT22;12448;45.532;5.290;2022-07-29T01:02:37;24.00;50.90
24326;DHT22;12448;45.532;5.290;2022-07-29T01:05:05;23.40;50.60
24326;DHT22;12448;45.532;5.290;2022-07-29T01:07:35;23.30;50.60
24326;DHT22;12448;45.532;5.290;2022-07-29T01:10:04;23.20;50.90
24326;DHT22;12448;45.532;5.290;2022-07-29T01:12:31;23.10;51.00
24326;DHT22;12448;45.532;5.290;2022-07-29T01:15:00;23.10;51.00
24326;DHT22;12448;45.532;5.290;2022-07-29T01:31:56;23.40;51.00
24326;DHT22;12448;45.532;5.290;2022-07-29T01:34:50;23.50;51.10
24326;DHT22;12448;45.532;5.290;2022-07-29T01:37:42;23.50;50.90
24326;DHT22;12448;45.532;5.290;2022-07-29T01:40:34;23.50;51.00
24326;DHT22;12448;45.532;5.290;2022-07-29T01:43:00;23.50;51.00
24326;DHT22;12448;45.532;5.290;2022-07-29T01:45:40;23.50;51.00
24326;DHT22;12448;45.532;5.290;2022-07-29T01:48:19;23.50;51.20
24326;DHT22;12448;45.532;5.290;2022-07-29T01:51:04;23.40;50.80
24326;DHT22;12448;45.532;5.290;2022-07-29T01:53:35;23.30;51.10
24326;DHT22;12448;45.532;5.290;2022-07-29T01:56:03;23.10;51.30
24326;DHT22;12448;45.532;5.290;2022-07-29T01:58:31;23.00;51.60
24326;DHT22;12448;45.532;5.290;2022-07-29T02:01:01;22.90;52.00
24326;DHT22;12448;45.532;5.290;2022-07-29T02:03:28;22.80;52.10
24326;DHT22;12448;45.532;5.290;2022-07-29T02:05:56;22.80;52.20
24326;DHT22;12448;45.532;5.290;2022-07-29T02:08:23;22.90;52.80
24326;DHT22;12448;45.532;5.290;2022-07-29T02:10:51;22.90;52.50
24326;DHT22;12448;45.532;5.290;2022-07-29T02:13:18;23.00;52.40
24326;DHT22;12448;45.532;5.290;2022-07-29T02:15:46;23.10;52.50
24326;DHT22;12448;45.532;5.290;2022-07-29T02:18:18;23.10;52.50
24326;DHT22;12448;45.532;5.290;2022-07-29T02:20:49;23.20;52.50
24326;DHT22;12448;45.532;5.290;2022-07-29T02:23:19;23.20;52.40
24326;DHT22;12448;45.532;5.290;2022-07-29T02:25:48;23.20;52.60
24326;DHT22;12448;45.532;5.290;2022-07-29T02:28:15;23.20;52.70
24326;DHT22;12448;45.532;5.290;2022-07-29T02:30:42;23.20;52.60
24326;DHT22;12448;45.532;5.290;2022-07-29T02:33:10;23.20;52.50
24326;DHT22;12448;45.532;5.290;2022-07-29T02:35:38;23.20;52.40
24326;DHT22;12448;45.532;5.290;2022-07-29T02:38:05;23.10;52.40
24326;DHT22;12448;45.532;5.290;2022-07-29T02:40:50;23.00;52.70
24326;DHT22;12448;45.532;5.290;2022-07-29T02:43:17;22.90;53.00
24326;DHT22;12448;45.532;5.290;2022-07-29T02:45:45;22.70;53.00
24326;DHT22;12448;45.532;5.290;2022-07-29T02:48:15;22.50;53.20
24326;DHT22;12448;45.532;5.290;2022-07-29T02:50:48;22.30;53.60
24326;DHT22;12448;45.532;5.290;2022-07-29T02:53:22;22.20;53.80
24326;DHT22;12448;45.532;5.290;2022-07-29T02:55:56;22.20;53.90
24326;DHT22;12448;45.532;5.290;2022-07-29T02:58:43;22.30;53.80
24326;DHT22;12448;45.532;5.290;2022-07-29T03:01:17;22.40;54.30
24326;DHT22;12448;45.532;5.290;2022-07-29T03:03:46;22.50;54.10
24326;DHT22;12448;45.532;5.290;2022-07-29T03:06:14;22.60;54.00
24326;DHT22;12448;45.532;5.290;2022-07-29T03:08:41;22.60;53.90
24326;DHT22;12448;45.532;5.290;2022-07-29T03:11:08;22.70;53.80
24326;DHT22;12448;45.532;5.290;2022-07-29T03:13:37;22.70;53.80
24326;DHT22;12448;45.532;5.290;2022-07-29T03:16:04;22.70;53.60
24326;DHT22;12448;45.532;5.290;2022-07-29T03:18:31;22.80;53.40
24326;DHT22;12448;45.532;5.290;2022-07-29T03:20:57;22.80;53.20
24326;DHT22;12448;45.532;5.290;2022-07-29T03:23:23;22.90;53.10
24326;DHT22;12448;45.532;5.290;2022-07-29T03:25:49;22.90;53.20
24326;DHT22;12448;45.532;5.290;2022-07-29T03:28:15;22.90;52.90
24326;DHT22;12448;45.532;5.290;2022-07-29T03:30:41;23.00;52.90
24326;DHT22;12448;45.532;5.290;2022-07-29T03:33:07;23.00;53.10
24326;DHT22;12448;45.532;5.290;2022-07-29T03:35:32;23.00;52.90
24326;DHT22;12448;45.532;5.290;2022-07-29T03:37:59;23.00;52.90
24326;DHT22;12448;45.532;5.290;2022-07-29T03:40:31;22.90;53.10
24326;DHT22;12448;45.532;5.290;2022-07-29T03:42:59;23.00;53.40
24326;DHT22;12448;45.532;5.290;2022-07-29T03:45:25;22.90;53.40
24326;DHT22;12448;45.532;5.290;2022-07-29T03:47:57;22.90;53.50
24326;DHT22;12448;45.532;5.290;2022-07-29T03:50:25;22.90;53.30
24326;DHT22;12448;45.532;5.290;2022-07-29T03:52:51;22.90;53.20
24326;DHT22;12448;45.532;5.290;2022-07-29T03:55:16;22.80;53.30
24326;DHT22;12448;45.532;5.290;2022-07-29T03:57:44;22.80;53.40
24326;DHT22;12448;45.532;5.290;2022-07-29T04:00:12;22.90;53.50
24326;DHT22;12448;45.532;5.290;2022-07-29T04:02:38;22.80;53.50
24326;DHT22;12448;45.532;5.290;2022-07-29T04:05:07;22.90;53.50
24326;DHT22;12448;45.532;5.290;2022-07-29T04:07:37;22.80;53.30
24326;DHT22;12448;45.532;5.290;2022-07-29T04:10:02;22.80;53.40
24326;DHT22;12448;45.532;5.290;2022-07-29T04:12:28;22.80;53.50
24326;DHT22;12448;45.532;5.290;2022-07-29T04:14:54;22.70;53.50
24326;DHT22;12448;45.532;5.290;2022-07-29T04:17:19;22.80;54.00
24326;DHT22;12448;45.532;5.290;2022-07-29T04:19:45;22.70;53.80
24326;DHT22;12448;45.532;5.290;2022-07-29T04:22:10;22.70;53.80
24326;DHT22;12448;45.532;5.290;2022-07-29T04:24:36;22.60;54.20
24326;DHT22;12448;45.532;5.290;2022-07-29T04:27:02;22.50;54.20
24326;DHT22;12448;45.532;5.290;2022-07-29T04:29:33;22.40;54.50
24326;DHT22;12448;45.532;5.290;2022-07-29T04:31:59;22.30;54.90
24326;DHT22;12448;45.532;5.290;2022-07-29T04:34:24;22.30;55.50
24326;DHT22;12448;45.532;5.290;2022-07-29T04:36:50;22.30;55.50
24326;DHT22;12448;45.532;5.290;2022-07-29T04:39:16;22.40;55.50
24326;DHT22;12448;45.532;5.290;2022-07-29T04:41:43;22.40;55.50
24326;DHT22;12448;45.532;5.290;2022-07-29T04:44:09;22.50;55.30
24326;DHT22;12448;45.532;5.290;2022-07-29T04:46:35;22.50;55.30
24326;DHT22;12448;45.532;5.290;2022-07-29T04:49:01;22.30;55.20
24326;DHT22;12448;45.532;5.290;2022-07-29T04:51:27;22.60;55.00
24326;DHT22;12448;45.532;5.290;2022-07-29T04:53:56;22.60;54.80
24326;DHT22;12448;45.532;5.290;2022-07-29T04:56:22;22.70;54.80
24326;DHT22;12448;45.532;5.290;2022-07-29T04:58:47;22.70;54.80
24326;DHT22;12448;45.532;5.290;2022-07-29T05:01:13;22.80;54.60
24326;DHT22;12448;45.532;5.290;2022-07-29T05:03:39;22.70;54.50
24326;DHT22;12448;45.532;5.290;2022-07-29T05:06:06;22.70;54.50
24326;DHT22;12448;45.532;5.290;2022-07-29T05:08:32;22.60;54.60
24326;DHT22;12448;45.532;5.290;2022-07-29T05:10:57;22.50;55.00
24326;DHT22;12448;45.532;5.290;2022-07-29T05:13:23;22.50;55.40
24326;DHT22;12448;45.532;5.290;2022-07-29T05:15:49;22.40;55.70
24326;DHT22;12448;45.532;5.290;2022-07-29T05:18:15;22.40;56.00
24326;DHT22;12448;45.532;5.290;2022-07-29T05:20:40;22.50;56.10
24326;DHT22;12448;45.532;5.290;2022-07-29T05:23:06;22.50;56.70
24326;DHT22;12448;45.532;5.290;2022-07-29T05:25:32;22.50;56.60
24326;DHT22;12448;45.532;5.290;2022-07-29T05:27:58;22.70;56.40
24326;DHT22;12448;45.532;5.290;2022-07-29T05:30:24;22.70;56.20
24326;DHT22;12448;45.532;5.290;2022-07-29T05:32:50;22.80;55.70
24326;DHT22;12448;45.532;5.290;2022-07-29T05:35:16;22.70;56.00
24326;DHT22;12448;45.532;5.290;2022-07-29T05:37:41;22.70;56.30
24326;DHT22;12448;45.532;5.290;2022-07-29T05:40:07;22.60;56.30
24326;DHT22;12448;45.532;5.290;2022-07-29T05:42:33;22.50;56.50
24326;DHT22;12448;45.532;5.290;2022-07-29T05:45:00;22.60;56.90
24326;DHT22;12448;45.532;5.290;2022-07-29T05:47:26;22.70;57.30
24326;DHT22;12448;45.532;5.290;2022-07-29T05:49:52;22.70;57.40
24326;DHT22;12448;45.532;5.290;2022-07-29T05:52:18;23.40;57.30
24326;DHT22;12448;45.532;5.290;2022-07-29T05:54:43;22.90;56.90
24326;DHT22;12448;45.532;5.290;2022-07-29T05:57:20;23.00;57.80
24326;DHT22;12448;45.532;5.290;2022-07-29T05:59:46;23.00;57.50
24326;DHT22;12448;45.532;5.290;2022-07-29T06:02:12;22.80;57.60
24326;DHT22;12448;45.532;5.290;2022-07-29T06:04:38;22.80;59.20
24326;DHT22;12448;45.532;5.290;2022-07-29T06:07:04;22.80;59.80
24326;DHT22;12448;45.532;5.290;2022-07-29T06:09:30;22.20;59.40
24326;DHT22;12448;45.532;5.290;2022-07-29T06:11:56;22.90;59.80
24326;DHT22;12448;45.532;5.290;2022-07-29T06:14:23;22.90;60.60
24326;DHT22;12448;45.532;5.290;2022-07-29T06:16:49;22.90;61.80
24326;DHT22;12448;45.532;5.290;2022-07-29T06:19:14;22.80;61.80
24326;DHT22;12448;45.532;5.290;2022-07-29T06:21:44;22.80;63.80
24326;DHT22;12448;45.532;5.290;2022-07-29T06:24:11;22.70;63.60
24326;DHT22;12448;45.532;5.290;2022-07-29T06:26:38;22.70;63.00
24326;DHT22;12448;45.532;5.290;2022-07-29T06:29:03;22.60;63.00
24326;DHT22;12448;45.532;5.290;2022-07-29T06:31:32;22.40;62.20
24326;DHT22;12448;45.532;5.290;2022-07-29T06:33:58;22.30;62.60
24326;DHT22;12448;45.532;5.290;2022-07-29T06:36:23;22.20;63.90
24326;DHT22;12448;45.532;5.290;2022-07-29T06:38:49;22.20;65.40
24326;DHT22;12448;45.532;5.290;2022-07-29T06:41:15;22.20;66.90
24326;DHT22;12448;45.532;5.290;2022-07-29T06:43:43;22.20;68.10
24326;DHT22;12448;45.532;5.290;2022-07-29T06:46:14;22.20;68.90
24326;DHT22;12448;45.532;5.290;2022-07-29T06:48:43;22.10;69.30
24326;DHT22;12448;45.532;5.290;2022-07-29T06:51:10;22.10;69.60
24326;DHT22;12448;45.532;5.290;2022-07-29T06:53:37;22.10;69.40
24326;DHT22;12448;45.532;5.290;2022-07-29T06:56:05;22.10;69.40
24326;DHT22;12448;45.532;5.290;2022-07-29T06:58:31;22.10;70.10
24326;DHT22;12448;45.532;5.290;2022-07-29T07:00:58;22.10;69.80
24326;DHT22;12448;45.532;5.290;2022-07-29T07:03:24;22.10;69.30
24326;DHT22;12448;45.532;5.290;2022-07-29T07:05:51;22.10;69.40
24326;DHT22;12448;45.532;5.290;2022-07-29T07:08:17;22.10;69.40
24326;DHT22;12448;45.532;5.290;2022-07-29T07:10:43;22.10;68.60
24326;DHT22;12448;45.532;5.290;2022-07-29T07:13:08;22.10;68.50
24326;DHT22;12448;45.532;5.290;2022-07-29T07:15:37;22.10;68.30
24326;DHT22;12448;45.532;5.290;2022-07-29T07:18:04;22.00;69.90
24326;DHT22;12448;45.532;5.290;2022-07-29T07:20:31;22.00;69.90
24326;DHT22;12448;45.532;5.290;2022-07-29T07:22:57;22.10;70.00
24326;DHT22;12448;45.532;5.290;2022-07-29T07:25:22;22.00;69.60
24326;DHT22;12448;45.532;5.290;2022-07-29T07:27:48;22.10;70.60
24326;DHT22;12448;45.532;5.290;2022-07-29T07:30:14;22.10;71.00
24326;DHT22;12448;45.532;5.290;2022-07-29T07:32:39;22.10;71.30
24326;DHT22;12448;45.532;5.290;2022-07-29T07:35:07;22.10;72.00
24326;DHT22;12448;45.532;5.290;2022-07-29T07:37:33;22.10;72.10
24326;DHT22;12448;45.532;5.290;2022-07-29T07:43:16;22.10;72.20
24326;DHT22;12448;45.532;5.290;2022-07-29T07:46:18;22.10;72.30
24326;DHT22;12448;45.532;5.290;2022-07-29T07:49:24;22.20;72.00
24326;DHT22;12448;45.532;5.290;2022-07-29T07:51:50;22.30;72.10
24326;DHT22;12448;45.532;5.290;2022-07-29T07:54:17;22.30;71.60
24326;DHT22;12448;45.532;5.290;2022-07-29T07:56:43;22.30;71.40
24326;DHT22;12448;45.532;5.290;2022-07-29T07:59:09;22.40;71.40
24326;DHT22;12448;45.532;5.290;2022-07-29T08:01:34;22.40;71.20
24326;DHT22;12448;45.532;5.290;2022-07-29T08:04:00;22.40;71.00
24326;DHT22;12448;45.532;5.290;2022-07-29T08:06:26;22.40;70.60
24326;DHT22;12448;45.532;5.290;2022-07-29T08:08:51;22.20;70.80
24326;DHT22;12448;45.532;5.290;2022-07-29T08:11:17;22.10;71.40
24326;DHT22;12448;45.532;5.290;2022-07-29T08:13:43;22.10;71.80
24326;DHT22;12448;45.532;5.290;2022-07-29T08:16:09;22.20;72.00
24326;DHT22;12448;45.532;5.290;2022-07-29T08:18:39;22.20;72.80
24326;DHT22;12448;45.532;5.290;2022-07-29T08:21:17;22.30;73.20
24326;DHT22;12448;45.532;5.290;2022-07-29T08:23:51;22.30;72.80
24326;DHT22;12448;45.532;5.290;2022-07-29T08:26:41;22.40;72.50
24326;DHT22;12448;45.532;5.290;2022-07-29T08:29:07;22.20;72.50
24326;DHT22;12448;45.532;5.290;2022-07-29T08:31:33;22.40;72.80
24326;DHT22;12448;45.532;5.290;2022-07-29T08:33:59;22.50;72.90
24326;DHT22;12448;45.532;5.290;2022-07-29T08:36:25;22.50;72.60
24326;DHT22;12448;45.532;5.290;2022-07-29T08:38:52;22.50;73.30
24326;DHT22;12448;45.532;5.290;2022-07-29T08:41:19;22.50;72.10
24326;DHT22;12448;45.532;5.290;2022-07-29T08:43:46;22.50;71.70
24326;DHT22;12448;45.532;5.290;2022-07-29T08:46:12;22.50;71.50
24326;DHT22;12448;45.532;5.290;2022-07-29T08:48:39;22.50;71.20
24326;DHT22;12448;45.532;5.290;2022-07-29T08:51:07;22.40;71.50
24326;DHT22;12448;45.532;5.290;2022-07-29T08:53:34;22.50;71.70
24326;DHT22;12448;45.532;5.290;2022-07-29T08:56:03;22.40;71.90
24326;DHT22;12448;45.532;5.290;2022-07-29T08:58:39;22.30;71.70
24326;DHT22;12448;45.532;5.290;2022-07-29T09:01:05;22.30;71.60
24326;DHT22;12448;45.532;5.290;2022-07-29T09:03:40;22.30;71.60
24326;DHT22;12448;45.532;5.290;2022-07-29T09:06:07;22.20;71.30
24326;DHT22;12448;45.532;5.290;2022-07-29T09:08:33;22.20;72.30
24326;DHT22;12448;45.532;5.290;2022-07-29T09:11:01;22.10;71.40
24326;DHT22;12448;45.532;5.290;2022-07-29T09:13:27;22.10;72.60
24326;DHT22;12448;45.532;5.290;2022-07-29T09:15:53;22.10;72.00
24326;DHT22;12448;45.532;5.290;2022-07-29T09:18:42;22.00;71.90
24326;DHT22;12448;45.532;5.290;2022-07-29T09:21:10;22.00;72.20
24326;DHT22;12448;45.532;5.290;2022-07-29T09:24:09;21.90;72.00
24326;DHT22;12448;45.532;5.290;2022-07-29T09:26:37;21.90;73.10
24326;DHT22;12448;45.532;5.290;2022-07-29T09:29:14;21.80;72.50
24326;DHT22;12448;45.532;5.290;2022-07-29T09:31:42;21.80;72.80
24326;DHT22;12448;45.532;5.290;2022-07-29T09:34:10;21.80;72.80
24326;DHT22;12448;45.532;5.290;2022-07-29T09:36:47;21.70;72.90
24326;DHT22;12448;45.532;5.290;2022-07-29T09:39:15;21.70;73.00
24326;DHT22;12448;45.532;5.290;2022-07-29T09:41:52;21.70;73.30
24326;DHT22;12448;45.532;5.290;2022-07-29T09:44:18;21.70;73.00
24326;DHT22;12448;45.532;5.290;2022-07-29T09:46:57;21.60;73.00
24326;DHT22;12448;45.532;5.290;2022-07-29T09:49:24;21.60;72.90
24326;DHT22;12448;45.532;5.290;2022-07-29T09:52:16;21.60;73.00
24326;DHT22;12448;45.532;5.290;2022-07-29T09:54:42;21.60;73.50
24326;DHT22;12448;45.532;5.290;2022-07-29T09:57:21;21.60;73.50
24326;DHT22;12448;45.532;5.290;2022-07-29T10:02:31;21.60;73.80
24326;DHT22;12448;45.532;5.290;2022-07-29T10:04:58;21.50;73.50
24326;DHT22;12448;45.532;5.290;2022-07-29T10:07:24;21.50;73.70
24326;DHT22;12448;45.532;5.290;2022-07-29T10:09:56;21.50;73.90
24326;DHT22;12448;45.532;5.290;2022-07-29T10:12:23;21.40;74.30
24326;DHT22;12448;45.532;5.290;2022-07-29T10:14:50;21.40;74.80
24326;DHT22;12448;45.532;5.290;2022-07-29T10:17:17;21.40;75.20
24326;DHT22;12448;45.532;5.290;2022-07-29T10:19:44;21.40;75.30
24326;DHT22;12448;45.532;5.290;2022-07-29T10:22:10;21.40;75.60
24326;DHT22;12448;45.532;5.290;2022-07-29T10:24:37;21.40;75.70
24326;DHT22;12448;45.532;5.290;2022-07-29T10:27:08;21.50;75.70
24326;DHT22;12448;45.532;5.290;2022-07-29T10:29:34;21.50;75.60
24326;DHT22;12448;45.532;5.290;2022-07-29T10:32:20;21.50;75.70
24326;DHT22;12448;45.532;5.290;2022-07-29T10:35:21;21.60;75.60
24326;DHT22;12448;45.532;5.290;2022-07-29T10:44:20;21.60;75.80
24326;DHT22;12448;45.532;5.290;2022-07-29T10:46:55;21.60;76.40
24326;DHT22;12448;45.532;5.290;2022-07-29T10:49:26;21.70;76.60
24326;DHT22;12448;45.532;5.290;2022-07-29T10:54:43;21.80;76.60
24326;DHT22;12448;45.532;5.290;2022-07-29T11:00:34;21.80;76.90
24326;DHT22;12448;45.532;5.290;2022-07-29T11:02:42;21.80;77.00
24326;DHT22;12448;45.532;5.290;2022-07-29T11:05:26;21.90;77.20
24326;DHT22;12448;45.532;5.290;2022-07-29T11:08:28;21.90;77.30
24326;DHT22;12448;45.532;5.290;2022-07-29T11:13:59;22.10;77.40
24326;DHT22;12448;45.532;5.290;2022-07-29T11:16:25;22.20;77.40
24326;DHT22;12448;45.532;5.290;2022-07-29T11:21:41;22.40;76.80
24326;DHT22;12448;45.532;5.290;2022-07-29T11:24:14;22.40;76.90
24326;DHT22;12448;45.532;5.290;2022-07-29T11:26:41;22.50;76.90
24326;DHT22;12448;45.532;5.290;2022-07-29T11:29:19;22.60;77.10
24326;DHT22;12448;45.532;5.290;2022-07-29T11:31:48;22.70;77.30
24326;DHT22;12448;45.532;5.290;2022-07-29T11:45:11;23.40;76.00
24326;DHT22;12448;45.532;5.290;2022-07-29T11:47:51;23.50;75.30
24326;DHT22;12448;45.532;5.290;2022-07-29T11:50:30;23.60;75.20
24326;DHT22;12448;45.532;5.290;2022-07-29T11:52:56;23.70;75.10
24326;DHT22;12448;45.532;5.290;2022-07-29T11:55:23;23.70;74.80
24326;DHT22;12448;45.532;5.290;2022-07-29T12:00:38;23.80;74.00
24326;DHT22;12448;45.532;5.290;2022-07-29T12:03:08;23.90;74.30
24326;DHT22;12448;45.532;5.290;2022-07-29T12:05:44;24.10;74.20
24326;DHT22;12448;45.532;5.290;2022-07-29T12:08:18;24.20;73.70
24326;DHT22;12448;45.532;5.290;2022-07-29T12:10:45;24.30;72.90
24326;DHT22;12448;45.532;5.290;2022-07-29T12:13:13;24.50;72.50
24326;DHT22;12448;45.532;5.290;2022-07-29T12:15:39;24.50;72.00
24326;DHT22;12448;45.532;5.290;2022-07-29T12:18:18;24.60;71.40
24326;DHT22;12448;45.532;5.290;2022-07-29T12:20:46;24.70;71.70
24326;DHT22;12448;45.532;5.290;2022-07-29T12:23:12;24.80;71.20
24326;DHT22;12448;45.532;5.290;2022-07-29T12:25:39;24.90;70.60
24326;DHT22;12448;45.532;5.290;2022-07-29T12:28:10;25.10;70.90
24326;DHT22;12448;45.532;5.290;2022-07-29T12:30:48;25.30;70.90
24326;DHT22;12448;45.532;5.290;2022-07-29T12:33:20;25.40;70.40
24326;DHT22;12448;45.532;5.290;2022-07-29T12:35:49;25.50;69.30
24326;DHT22;12448;45.532;5.290;2022-07-29T12:38:15;25.60;67.90
24326;DHT22;12448;45.532;5.290;2022-07-29T12:40:42;25.60;66.90
24326;DHT22;12448;45.532;5.290;2022-07-29T12:43:09;25.70;64.40
24326;DHT22;12448;45.532;5.290;2022-07-29T12:45:36;25.50;63.00
24326;DHT22;12448;45.532;5.290;2022-07-29T12:48:02;25.50;64.70
24326;DHT22;12448;45.532;5.290;2022-07-29T12:50:28;25.50;64.60
24326;DHT22;12448;45.532;5.290;2022-07-29T12:52:54;25.60;64.30
24326;DHT22;12448;45.532;5.290;2022-07-29T12:55:47;25.70;65.30
24326;DHT22;12448;45.532;5.290;2022-07-29T12:58:40;25.80;65.90
24326;DHT22;12448;45.532;5.290;2022-07-29T13:01:07;26.00;65.50
24326;DHT22;12448;45.532;5.290;2022-07-29T13:09:18;26.10;65.70
24326;DHT22;12448;45.532;5.290;2022-07-29T13:11:49;26.20;65.50
24326;DHT22;12448;45.532;5.290;2022-07-29T13:14:32;26.20;65.30
24326;DHT22;12448;45.532;5.290;2022-07-29T13:22:28;26.40;64.90
24326;DHT22;12448;45.532;5.290;2022-07-29T13:24:56;26.40;63.60
24326;DHT22;12448;45.532;5.290;2022-07-29T13:27:26;26.40;63.80
24326;DHT22;12448;45.532;5.290;2022-07-29T13:29:53;26.40;63.20
24326;DHT22;12448;45.532;5.290;2022-07-29T13:32:22;26.40;62.90
24326;DHT22;12448;45.532;5.290;2022-07-29T13:34:48;26.40;63.40
24326;DHT22;12448;45.532;5.290;2022-07-29T13:37:14;26.40;62.60
24326;DHT22;12448;45.532;5.290;2022-07-29T13:39:39;26.40;61.80
24326;DHT22;12448;45.532;5.290;2022-07-29T13:42:07;26.30;62.00
24326;DHT22;12448;45.532;5.290;2022-07-29T13:44:34;26.40;62.70
24326;DHT22;12448;45.532;5.290;2022-07-29T13:47:00;26.40;62.70
24326;DHT22;12448;45.532;5.290;2022-07-29T13:49:26;26.50;62.80
24326;DHT22;12448;45.532;5.290;2022-07-29T13:51:53;26.60;62.00
24326;DHT22;12448;45.532;5.290;2022-07-29T13:54:18;26.70;61.10
24326;DHT22;12448;45.532;5.290;2022-07-29T13:56:44;26.70;60.10
24326;DHT22;12448;45.532;5.290;2022-07-29T13:59:10;26.80;60.70
24326;DHT22;12448;45.532;5.290;2022-07-29T14:01:36;26.60;59.70
24326;DHT22;12448;45.532;5.290;2022-07-29T14:04:02;26.70;60.20
24326;DHT22;12448;45.532;5.290;2022-07-29T14:06:27;26.60;59.40
24326;DHT22;12448;45.532;5.290;2022-07-29T14:08:53;26.50;58.60
24326;DHT22;12448;45.532;5.290;2022-07-29T14:11:19;26.50;59.10
24326;DHT22;12448;45.532;5.290;2022-07-29T14:13:44;26.60;59.10
24326;DHT22;12448;45.532;5.290;2022-07-29T14:16:10;26.60;58.20
24326;DHT22;12448;45.532;5.290;2022-07-29T14:18:36;26.80;58.80
24326;DHT22;12448;45.532;5.290;2022-07-29T14:21:02;26.90;58.80
24326;DHT22;12448;45.532;5.290;2022-07-29T14:23:28;27.00;58.60
24326;DHT22;12448;45.532;5.290;2022-07-29T14:25:54;27.10;58.40
24326;DHT22;12448;45.532;5.290;2022-07-29T14:28:19;27.20;58.30
24326;DHT22;12448;45.532;5.290;2022-07-29T14:30:45;27.30;58.00
24326;DHT22;12448;45.532;5.290;2022-07-29T14:33:11;27.40;57.80
24326;DHT22;12448;45.532;5.290;2022-07-29T14:35:36;27.40;57.10
24326;DHT22;12448;45.532;5.290;2022-07-29T14:38:02;27.50;56.80
24326;DHT22;12448;45.532;5.290;2022-07-29T14:40:28;27.60;56.10
24326;DHT22;12448;45.532;5.290;2022-07-29T14:42:53;27.50;56.60
24326;DHT22;12448;45.532;5.290;2022-07-29T14:45:19;27.70;57.10
24326;DHT22;12448;45.532;5.290;2022-07-29T14:47:45;27.70;56.30
24326;DHT22;12448;45.532;5.290;2022-07-29T14:50:10;27.80;55.80
24326;DHT22;12448;45.532;5.290;2022-07-29T14:52:36;27.80;55.60
24326;DHT22;12448;45.532;5.290;2022-07-29T14:55:02;27.80;55.10
24326;DHT22;12448;45.532;5.290;2022-07-29T14:57:29;27.90;54.90
24326;DHT22;12448;45.532;5.290;2022-07-29T14:59:54;27.90;54.60
24326;DHT22;12448;45.532;5.290;2022-07-29T15:02:20;27.90;54.70
24326;DHT22;12448;45.532;5.290;2022-07-29T15:04:46;27.90;54.70
24326;DHT22;12448;45.532;5.290;2022-07-29T15:07:13;28.00;54.70
24326;DHT22;12448;45.532;5.290;2022-07-29T15:09:39;28.00;54.80
24326;DHT22;12448;45.532;5.290;2022-07-29T15:12:05;28.00;55.10
24326;DHT22;12448;45.532;5.290;2022-07-29T15:14:31;28.00;55.30
24326;DHT22;12448;45.532;5.290;2022-07-29T15:16:57;28.00;55.50
24326;DHT22;12448;45.532;5.290;2022-07-29T15:19:22;27.90;55.60
24326;DHT22;12448;45.532;5.290;2022-07-29T15:21:48;27.90;55.80
24326;DHT22;12448;45.532;5.290;2022-07-29T15:24:17;27.90;56.00
24326;DHT22;12448;45.532;5.290;2022-07-29T15:26:43;28.00;56.10
24326;DHT22;12448;45.532;5.290;2022-07-29T15:29:09;28.00;55.80
24326;DHT22;12448;45.532;5.290;2022-07-29T15:31:34;28.00;55.40
24326;DHT22;12448;45.532;5.290;2022-07-29T15:34:00;28.10;55.30
24326;DHT22;12448;45.532;5.290;2022-07-29T15:36:25;28.10;54.90
24326;DHT22;12448;45.532;5.290;2022-07-29T15:38:53;28.10;54.50
24326;DHT22;12448;45.532;5.290;2022-07-29T15:41:19;28.00;53.50
24326;DHT22;12448;45.532;5.290;2022-07-29T15:43:45;28.00;53.90
24326;DHT22;12448;45.532;5.290;2022-07-29T15:46:15;28.00;53.60
24326;DHT22;12448;45.532;5.290;2022-07-29T15:49:00;27.90;53.30
24326;DHT22;12448;45.532;5.290;2022-07-29T15:51:26;27.80;53.80
24326;DHT22;12448;45.532;5.290;2022-07-29T15:53:52;27.80;54.30
24326;DHT22;12448;45.532;5.290;2022-07-29T15:56:17;27.80;53.90
24326;DHT22;12448;45.532;5.290;2022-07-29T15:58:43;27.90;54.20
24326;DHT22;12448;45.532;5.290;2022-07-29T16:01:09;28.00;54.40
24326;DHT22;12448;45.532;5.290;2022-07-29T16:03:35;28.00;54.10
24326;DHT22;12448;45.532;5.290;2022-07-29T16:06:00;28.00;54.00
24326;DHT22;12448;45.532;5.290;2022-07-29T16:08:26;28.10;53.60
24326;DHT22;12448;45.532;5.290;2022-07-29T16:10:52;27.90;49.80
24326;DHT22;12448;45.532;5.290;2022-07-29T16:13:17;27.90;50.30
24326;DHT22;12448;45.532;5.290;2022-07-29T16:15:43;27.80;49.80
24326;DHT22;12448;45.532;5.290;2022-07-29T16:18:09;27.70;50.50
24326;DHT22;12448;45.532;5.290;2022-07-29T16:20:35;27.70;50.40
24326;DHT22;12448;45.532;5.290;2022-07-29T16:23:01;27.50;49.90
24326;DHT22;12448;45.532;5.290;2022-07-29T16:25:27;27.50;50.50
24326;DHT22;12448;45.532;5.290;2022-07-29T16:27:53;27.30;50.50
24326;DHT22;12448;45.532;5.290;2022-07-29T16:30:18;27.30;50.30
24326;DHT22;12448;45.532;5.290;2022-07-29T16:32:44;27.10;50.30
24326;DHT22;12448;45.532;5.290;2022-07-29T16:35:10;27.00;50.70
24326;DHT22;12448;45.532;5.290;2022-07-29T16:37:36;26.90;50.80
24326;DHT22;12448;45.532;5.290;2022-07-29T16:40:06;26.80;51.60
24326;DHT22;12448;45.532;5.290;2022-07-29T16:42:33;26.70;51.90